Blue Mound, Texas
Current Conditions -  °F | °C
As of 7:53 AM on Thursday 29 Jan 2015 (Local Time) from KAFW Reporting Station
Scattered Clouds Scattered Clouds  
Wind Chill: 50°   Ceiling: Unl
Heat Index: 50°   Visibility: 10mi
Dew Point: 38°   Wind: 7mph
Humidity: 63%   Direction: 350°N
Pressure: 30.2"   Gusts: NA
Location:  32.9103°N, 97.3722°W
Report Text: KAFW 291353Z 35006KT 10SM FEW200 SCT250 10/03 A3020 RMK AO2 SLP225 T01000033
Loading
Personal Weather Stations






























Interactive Weather Map New forecast layout! Learn more

10-Day Weather Forecast

Advertisements
Track Severe Weather on mobile